createdAt,value
2016-10-16T00:00:15.556Z,67.27
2016-10-16T00:01:15.575Z,67.94
2016-10-16T00:02:15.593Z,68.13
2016-10-16T00:03:15.615Z,67.94
2016-10-16T00:04:15.629Z,67.94
2016-10-16T00:05:15.638Z,67.65
2016-10-16T00:06:15.658Z,67.94
2016-10-16T00:07:15.676Z,67.94
2016-10-16T00:08:15.697Z,67.94
2016-10-16T00:09:15.714Z,67.94
2016-10-16T00:10:15.740Z,68.13
2016-10-16T00:11:15.755Z,67.94
2016-10-16T00:12:15.775Z,67.94
2016-10-16T00:13:15.795Z,67.75
2016-10-16T00:14:15.814Z,68.41
2016-10-16T00:15:15.839Z,68.13
2016-10-16T00:16:15.852Z,67.84
2016-10-16T00:17:15.871Z,68.23
2016-10-16T00:18:15.886Z,68.04
2016-10-16T00:19:15.908Z,68.04
2016-10-16T00:20:15.931Z,68.04
2016-10-16T00:21:15.944Z,68.51
2016-10-16T00:22:15.969Z,68.04
2016-10-16T00:23:15.986Z,67.65
2016-10-16T00:24:16.003Z,67.65
2016-10-16T00:25:16.026Z,68.32
2016-10-16T00:26:16.040Z,67.65
2016-10-16T00:27:16.063Z,68.51
2016-10-16T00:28:16.081Z,67.65
2016-10-16T00:29:16.109Z,68.61
2016-10-16T00:30:16.124Z,68.51
2016-10-16T00:31:16.139Z,68.51
2016-10-16T00:32:16.158Z,67.75
2016-10-16T00:33:16.174Z,67.55
2016-10-16T00:34:16.200Z,67.75
2016-10-16T00:35:16.214Z,68.61
2016-10-16T00:36:16.241Z,67.65
2016-10-16T00:37:16.250Z,68.7
2016-10-16T00:38:16.272Z,67.75
2016-10-16T00:39:16.289Z,68.7
2016-10-16T00:40:16.430Z,67.65
2016-10-16T00:41:16.452Z,68.51
2016-10-16T00:42:16.463Z,67.75
2016-10-16T00:43:16.459Z,68.7
2016-10-16T00:44:16.501Z,67.65
2016-10-16T00:45:16.519Z,67.75
2016-10-16T00:46:16.626Z,68.61
2016-10-16T00:47:16.588Z,67.65
2016-10-16T00:48:16.594Z,67.94
2016-10-16T00:49:16.634Z,67.65
2016-10-16T00:50:16.614Z,67.65
2016-10-16T00:51:16.750Z,68.61
2016-10-16T00:52:16.759Z,67.84
2016-10-16T00:53:16.762Z,67.75
2016-10-16T00:54:16.772Z,68.8
2016-10-16T00:55:16.779Z,67.75
2016-10-16T00:56:16.861Z,68.8
2016-10-16T00:57:16.804Z,67.75
2016-10-16T00:58:16.801Z,68.23
2016-10-16T00:59:16.753Z,67.84
2016-10-16T01:00:16.784Z,68.23
2016-10-16T01:01:16.814Z,67.75
2016-10-16T01:02:16.791Z,68.51
2016-10-16T01:03:16.807Z,68.41
2016-10-16T01:04:16.818Z,68.04
2016-10-16T01:05:16.813Z,68.13
2016-10-16T01:06:16.905Z,68.41
2016-10-16T01:07:16.828Z,68.04
2016-10-16T01:08:16.846Z,67.75
2016-10-16T01:09:16.865Z,68.04
2016-10-16T01:10:16.893Z,67.94
2016-10-16T01:11:16.952Z,68.04
2016-10-16T01:12:16.921Z,68.13
2016-10-16T01:13:16.939Z,67.84
2016-10-16T01:14:16.956Z,68.04
2016-10-16T01:15:16.985Z,67.84
2016-10-16T01:16:17.005Z,68.23
2016-10-16T01:17:17.017Z,67.94
2016-10-16T01:18:17.040Z,68.41
2016-10-16T01:19:17.057Z,68.61
2016-10-16T01:20:17.082Z,68.23
2016-10-16T01:21:17.102Z,68.32
2016-10-16T01:22:17.112Z,68.13
2016-10-16T01:23:17.129Z,68.04
2016-10-16T01:24:17.153Z,68.7
2016-10-16T01:25:17.166Z,68.13
2016-10-16T01:26:17.188Z,68.41
2016-10-16T01:27:17.206Z,68.13
2016-10-16T01:28:17.232Z,68.7
2016-10-16T01:29:17.243Z,67.94
2016-10-16T01:30:17.263Z,68.04
2016-10-16T01:31:17.282Z,68.51
2016-10-16T01:32:17.300Z,68.51
2016-10-16T01:33:17.331Z,68.8
2016-10-16T01:34:17.337Z,68.32
2016-10-16T01:35:17.372Z,68.51
2016-10-16T01:36:17.384Z,68.41
2016-10-16T01:37:17.403Z,68.51
2016-10-16T01:38:17.424Z,68.32
2016-10-16T01:39:17.433Z,68.41
2016-10-16T01:40:17.456Z,68.23
2016-10-16T01:41:17.471Z,68.51
2016-10-16T01:42:17.491Z,68.41
2016-10-16T01:43:17.525Z,68.9
2016-10-16T01:44:17.533Z,68.61
2016-10-16T01:45:17.550Z,68.51
2016-10-16T01:46:17.573Z,68.23
2016-10-16T01:47:17.595Z,68.8
2016-10-16T01:48:17.615Z,68.7
2016-10-16T01:49:17.624Z,68.32
2016-10-16T01:50:17.645Z,68.32
2016-10-16T01:51:17.673Z,68.32
2016-10-16T01:52:17.682Z,68.32
2016-10-16T01:53:17.706Z,68.61
2016-10-16T01:54:17.719Z,68.9
2016-10-16T01:55:17.747Z,68.32
2016-10-16T01:56:17.757Z,68.23
2016-10-16T01:57:17.783Z,68.23
2016-10-16T01:58:17.803Z,68.32
2016-10-16T01:59:17.816Z,68.99
2016-10-16T02:00:17.836Z,68.9
2016-10-16T02:01:17.851Z,68.23
2016-10-16T02:02:17.875Z,68.41
2016-10-16T02:03:17.897Z,68.23
2016-10-16T02:04:17.908Z,68.23
2016-10-16T02:05:17.931Z,68.13
2016-10-16T02:06:17.950Z,68.23
2016-10-16T02:07:17.971Z,68.32
2016-10-16T02:08:17.984Z,68.8
2016-10-16T02:09:18.010Z,68.7
2016-10-16T02:10:18.025Z,68.51
2016-10-16T02:11:18.051Z,68.9
2016-10-16T02:12:18.062Z,68.61
2016-10-16T02:13:18.080Z,68.51
2016-10-16T02:14:18.100Z,68.51
2016-10-16T02:15:18.121Z,68.23
2016-10-16T02:16:18.134Z,68.41
2016-10-16T02:17:18.156Z,68.41
2016-10-16T02:18:18.173Z,68.9
2016-10-16T02:19:18.205Z,68.9
2016-10-16T02:20:18.213Z,69.18
2016-10-16T02:21:18.234Z,68.8
2016-10-16T02:22:18.250Z,69.27
2016-10-16T02:23:18.268Z,68.8
2016-10-16T02:24:18.306Z,68.8
2016-10-16T02:25:18.305Z,69.27
2016-10-16T02:26:18.325Z,68.9
2016-10-16T02:27:18.352Z,69.18
2016-10-16T02:28:18.367Z,68.61
2016-10-16T02:29:18.381Z,69.09
2016-10-16T02:30:18.402Z,68.9
2016-10-16T02:31:18.420Z,68.61
2016-10-16T02:32:18.443Z,68.99
2016-10-16T02:33:18.456Z,69.18
2016-10-16T02:34:18.485Z,69.34
2016-10-16T02:35:18.504Z,68.7
2016-10-16T02:36:18.515Z,68.9
2016-10-16T02:37:18.535Z,69.27
2016-10-16T02:38:18.553Z,68.9
2016-10-16T02:39:18.582Z,68.9
2016-10-16T02:40:18.590Z,68.8
2016-10-16T02:41:18.613Z,68.41
2016-10-16T02:42:18.630Z,69.56
2016-10-16T02:43:18.653Z,69.66
2016-10-16T02:44:18.670Z,69.05
2016-10-16T02:45:18.686Z,68.8
2016-10-16T02:46:18.707Z,68.67
2016-10-16T02:47:18.722Z,69.62
2016-10-16T02:48:18.744Z,69.66
2016-10-16T02:49:18.762Z,69.24
2016-10-16T02:50:18.783Z,69.27
2016-10-16T02:51:18.800Z,69.27
2016-10-16T02:52:18.825Z,69.66
2016-10-16T02:53:18.841Z,69.62
2016-10-16T02:54:18.860Z,69.62
2016-10-16T02:55:18.878Z,69.62
2016-10-16T02:56:18.901Z,69.72
2016-10-16T02:57:18.919Z,69.62
2016-10-16T02:58:18.954Z,69.62
2016-10-16T02:59:18.957Z,69.43
2016-10-16T03:00:18.970Z,69.43
2016-10-16T03:01:18.999Z,69.53
2016-10-16T03:02:19.007Z,69.34
2016-10-16T03:03:19.037Z,69.43
2016-10-16T03:04:19.047Z,69.53
2016-10-16T03:05:19.065Z,69.15
2016-10-16T03:06:19.086Z,69.43
2016-10-16T03:07:19.107Z,69.27
2016-10-16T03:08:19.126Z,69.62
2016-10-16T03:09:19.187Z,69.53
2016-10-16T03:10:19.176Z,69.15
2016-10-16T03:11:19.182Z,69.34
2016-10-16T03:12:19.202Z,69.15
2016-10-16T03:13:19.216Z,69.34
2016-10-16T03:14:19.237Z,69.34
2016-10-16T03:15:19.265Z,69.18
2016-10-16T03:16:19.330Z,69.62
2016-10-16T03:17:19.294Z,69.24
2016-10-16T03:18:19.311Z,69.24
2016-10-16T03:19:19.332Z,70.01
2016-10-16T03:20:19.392Z,70.2
2016-10-16T03:21:19.468Z,70.1
2016-10-16T03:22:19.459Z,69.34
2016-10-16T03:23:19.447Z,69.82
2016-10-16T03:24:19.529Z,69.72
2016-10-16T03:25:19.492Z,69.82
2016-10-16T03:26:19.502Z,69.62
2016-10-16T03:27:19.547Z,69.82
2016-10-16T03:28:19.583Z,69.53
2016-10-16T03:29:19.532Z,69.72
2016-10-16T03:30:19.548Z,69.53
2016-10-16T03:31:19.561Z,69.53
2016-10-16T03:32:19.579Z,69.43
2016-10-16T03:33:19.598Z,69.62
2016-10-16T03:34:19.626Z,69.53
2016-10-16T03:35:19.645Z,69.53
2016-10-16T03:36:19.657Z,69.62
2016-10-16T03:37:19.685Z,69.53
2016-10-16T03:38:19.698Z,69.53
2016-10-16T03:39:19.709Z,69.72
2016-10-16T03:40:19.738Z,69.53
2016-10-16T03:41:19.749Z,69.53
2016-10-16T03:42:19.769Z,69.53
2016-10-16T03:43:19.784Z,69.72
2016-10-16T03:44:19.815Z,69.53
2016-10-16T03:45:19.828Z,69.34
2016-10-16T03:46:19.841Z,69.34
2016-10-16T03:47:19.863Z,69.53
2016-10-16T03:48:19.880Z,69.62
2016-10-16T03:49:19.928Z,69.15
2016-10-16T03:50:19.923Z,69.82
2016-10-16T03:51:19.938Z,69.72
2016-10-16T03:52:19.956Z,69.91
2016-10-16T03:53:19.977Z,69.34
2016-10-16T03:54:19.992Z,69.24
2016-10-16T03:55:20.014Z,69.34
2016-10-16T03:56:20.031Z,69.43
2016-10-16T03:57:20.053Z,69.34
2016-10-16T03:58:20.067Z,69.82
2016-10-16T03:59:20.094Z,69.24
2016-10-16T04:00:20.105Z,69.91
2016-10-16T04:01:20.124Z,69.34
2016-10-16T04:02:20.145Z,69.43
2016-10-16T04:03:20.175Z,70.01
2016-10-16T04:04:20.182Z,69.43
2016-10-16T04:05:20.200Z,69.82
2016-10-16T04:06:20.225Z,69.43
2016-10-16T04:07:20.239Z,70.01
2016-10-16T04:08:20.263Z,69.53
2016-10-16T04:09:20.280Z,69.53
2016-10-16T04:10:20.292Z,69.82
2016-10-16T04:11:20.311Z,70.29
2016-10-16T04:12:20.330Z,70.36
2016-10-16T04:13:20.353Z,69.82
2016-10-16T04:14:20.373Z,69.49
2016-10-16T04:15:20.386Z,69.72
2016-10-16T04:16:20.406Z,69.4
2016-10-16T04:17:20.424Z,69.53
2016-10-16T04:18:20.447Z,69.59
2016-10-16T04:19:20.463Z,69.72
2016-10-16T04:20:20.483Z,70.29
2016-10-16T04:21:20.506Z,70.26
2016-10-16T04:22:20.519Z,70.26
2016-10-16T04:23:20.540Z,69.59
2016-10-16T04:24:20.560Z,69.68
2016-10-16T04:25:20.575Z,70.26
2016-10-16T04:26:20.639Z,69.78
2016-10-16T04:27:20.622Z,69.78
2016-10-16T04:28:20.639Z,69.59
2016-10-16T04:29:20.650Z,70.16
2016-10-16T04:30:20.683Z,69.78
2016-10-16T04:31:20.685Z,69.68
2016-10-16T04:32:20.712Z,70.16
2016-10-16T04:33:20.822Z,69.68
2016-10-16T04:34:20.743Z,69.4
2016-10-16T04:35:20.760Z,69.78
2016-10-16T04:36:20.786Z,69.97
2016-10-16T04:37:20.799Z,70.07
2016-10-16T04:38:20.814Z,70.83
2016-10-16T04:39:20.840Z,70.64
2016-10-16T04:40:20.854Z,69.68
2016-10-16T04:41:20.882Z,70.16
2016-10-16T04:42:20.892Z,70.83
2016-10-16T04:43:20.915Z,70.07
2016-10-16T04:44:20.930Z,69.68
2016-10-16T04:45:20.947Z,70.07
2016-10-16T04:46:20.972Z,70.16
2016-10-16T04:47:20.985Z,69.97
2016-10-16T04:48:21.003Z,70.73
2016-10-16T04:49:21.022Z,70.26
2016-10-16T04:50:21.043Z,70.54
2016-10-16T04:51:21.059Z,70.26
2016-10-16T04:52:21.079Z,70.26
2016-10-16T04:53:21.096Z,70.36
2016-10-16T04:54:21.119Z,70.64
2016-10-16T04:55:21.150Z,70.54
2016-10-16T04:56:21.155Z,70.54
2016-10-16T04:57:21.180Z,70.64
2016-10-16T04:58:21.193Z,70.45
2016-10-16T04:59:21.206Z,70.45
2016-10-16T05:00:21.227Z,70.45
2016-10-16T05:01:21.245Z,70.36
2016-10-16T05:02:21.260Z,70.45
2016-10-16T05:03:21.280Z,70.54
2016-10-16T05:04:21.301Z,70.36
2016-10-16T05:05:21.319Z,70.45
2016-10-16T05:06:21.337Z,70.26
2016-10-16T05:07:21.359Z,70.07
2016-10-16T05:08:21.377Z,70.54
2016-10-16T05:09:21.401Z,69.97
2016-10-16T05:10:21.412Z,70.45
2016-10-16T05:11:21.429Z,70.45
2016-10-16T05:12:21.450Z,70.64
2016-10-16T05:13:21.464Z,70.45
2016-10-16T05:14:21.488Z,70.54
2016-10-16T05:15:21.505Z,70.54
2016-10-16T05:16:21.520Z,70.36
2016-10-16T05:17:21.538Z,70.16
2016-10-16T05:18:21.557Z,70.26
2016-10-16T05:19:21.575Z,70.16
2016-10-16T05:20:21.595Z,70.16
2016-10-16T05:21:21.614Z,70.22
2016-10-16T05:22:21.632Z,70.36
2016-10-16T05:23:21.650Z,70.51
2016-10-16T05:24:21.667Z,70.22
2016-10-16T05:25:21.687Z,70.32
2016-10-16T05:26:21.706Z,70.32
2016-10-16T05:27:21.723Z,70.16
2016-10-16T05:28:21.740Z,70.22
2016-10-16T05:29:21.764Z,70.42
2016-10-16T05:30:21.785Z,70.13
2016-10-16T05:31:21.794Z,70.13
2016-10-16T05:32:21.813Z,70.32
2016-10-16T05:33:21.835Z,70.13
2016-10-16T05:34:21.852Z,70.22
2016-10-16T05:35:21.869Z,70.22
2016-10-16T05:36:21.888Z,70.7
2016-10-16T05:37:21.909Z,70.22
2016-10-16T05:38:21.925Z,70.7
2016-10-16T05:39:21.942Z,70.13
2016-10-16T05:40:21.970Z,70.03
2016-10-16T05:41:21.982Z,70.98
2016-10-16T05:42:21.999Z,71.08
2016-10-16T05:43:22.020Z,70.42
2016-10-16T05:44:22.034Z,70.51
2016-10-16T05:45:22.054Z,70.51
2016-10-16T05:46:22.070Z,70.51
2016-10-16T05:47:22.089Z,70.32
2016-10-16T05:48:22.108Z,70.42
2016-10-16T05:49:22.135Z,70.51
2016-10-16T05:50:22.146Z,70.42
2016-10-16T05:51:22.161Z,70.42
2016-10-16T05:52:22.181Z,70.51
2016-10-16T05:53:22.202Z,70.61
2016-10-16T05:54:22.218Z,70.61
2016-10-16T05:55:22.245Z,70.51
2016-10-16T05:56:22.256Z,70.42
2016-10-16T05:57:22.278Z,70.51
2016-10-16T05:58:22.297Z,70.7
2016-10-16T05:59:22.308Z,70.7
2016-10-16T06:00:22.327Z,70.61
2016-10-16T06:01:22.347Z,70.51
2016-10-16T06:02:22.363Z,70.61
2016-10-16T06:03:22.380Z,70.89
2016-10-16T06:04:22.471Z,70.79
2016-10-16T06:05:22.419Z,70.7
2016-10-16T06:06:22.432Z,70.42
2016-10-16T06:07:22.454Z,70.42
2016-10-16T06:08:22.467Z,70.79
2016-10-16T06:09:22.488Z,70.51
2016-10-16T06:10:22.517Z,70.7
2016-10-16T06:11:22.536Z,70.61
2016-10-16T06:12:22.541Z,70.61
2016-10-16T06:13:22.561Z,71.08
2016-10-16T06:14:22.577Z,70.67
2016-10-16T06:15:22.599Z,70.7
2016-10-16T06:16:22.617Z,70.89
2016-10-16T06:17:22.631Z,70.98
2016-10-16T06:18:22.651Z,71.18
2016-10-16T06:19:22.669Z,70.98
2016-10-16T06:20:22.696Z,70.98
2016-10-16T06:21:22.706Z,70.89
2016-10-16T06:22:22.726Z,71.04
2016-10-16T06:23:22.740Z,71.08
2016-10-16T06:24:22.773Z,71.08
2016-10-16T06:25:22.791Z,70.95
2016-10-16T06:26:22.795Z,71.18
2016-10-16T06:27:22.815Z,70.98
2016-10-16T06:28:22.832Z,70.7
2016-10-16T06:29:22.851Z,70.79
2016-10-16T06:30:22.870Z,70.89
2016-10-16T06:31:22.891Z,70.79
2016-10-16T06:32:22.909Z,70.89
2016-10-16T06:33:22.924Z,71.43
2016-10-16T06:34:22.940Z,71.37
2016-10-16T06:35:22.958Z,71.27
2016-10-16T06:36:22.977Z,71.27
2016-10-16T06:37:22.993Z,71.37
2016-10-16T06:38:23.022Z,71.37
2016-10-16T06:39:23.031Z,71.46
2016-10-16T06:40:23.050Z,71.08
2016-10-16T06:41:23.071Z,71.46
2016-10-16T06:42:23.084Z,71.18
2016-10-16T06:43:23.102Z,71.37
2016-10-16T06:44:23.121Z,71.46
2016-10-16T06:45:23.138Z,71.27
2016-10-16T06:46:23.157Z,71.27
2016-10-16T06:47:23.176Z,71.37
2016-10-16T06:48:23.193Z,71.46
2016-10-16T06:49:23.214Z,71.46
2016-10-16T06:50:23.237Z,71.37
2016-10-16T06:51:23.260Z,71.46
2016-10-16T06:52:23.273Z,71.37
2016-10-16T06:53:23.292Z,71.37
2016-10-16T06:54:23.303Z,71.37
2016-10-16T06:55:23.323Z,71.46
2016-10-16T06:56:23.337Z,71.46
2016-10-16T06:57:23.374Z,71.37
2016-10-16T06:58:23.372Z,71.46
2016-10-16T06:59:23.396Z,71.27
2016-10-16T07:00:23.408Z,71.27
2016-10-16T07:01:23.437Z,70.98
2016-10-16T07:02:23.444Z,71.37
2016-10-16T07:03:23.463Z,71.37
2016-10-16T07:04:23.480Z,70.98
2016-10-16T07:05:23.499Z,71.37
2016-10-16T07:06:23.522Z,71.41
2016-10-16T07:07:23.543Z,71.98
2016-10-16T07:08:23.560Z,71.69
2016-10-16T07:09:23.571Z,71.69
2016-10-16T07:10:23.588Z,71.5
2016-10-16T07:11:23.608Z,71.59
2016-10-16T07:12:23.623Z,71.5
2016-10-16T07:13:23.643Z,71.59
2016-10-16T07:14:23.667Z,71.41
2016-10-16T07:15:23.689Z,71.59
2016-10-16T07:16:23.698Z,71.41
2016-10-16T07:17:24.038Z,71.59
2016-10-16T07:18:23.733Z,71.41
2016-10-16T07:19:23.752Z,71.31
2016-10-16T07:20:23.768Z,71.21
2016-10-16T07:21:24.109Z,71.5
2016-10-16T07:22:23.805Z,71.78
2016-10-16T07:23:23.830Z,71.98
2016-10-16T07:24:23.852Z,71.69
2016-10-16T07:25:23.868Z,71.78
2016-10-16T07:26:23.889Z,71.78
2016-10-16T07:27:23.895Z,71.98
2016-10-16T07:28:23.913Z,71.69
2016-10-16T07:29:23.930Z,71.69
2016-10-16T07:30:23.959Z,71.69
2016-10-16T07:31:23.977Z,71.82
2016-10-16T07:32:23.985Z,71.53
2016-10-16T07:33:24.015Z,71.72
2016-10-16T07:34:24.021Z,71.53
2016-10-16T07:35:24.055Z,71.72
2016-10-16T07:36:24.066Z,71.72
2016-10-16T07:37:24.078Z,71.53
2016-10-16T07:38:24.097Z,71.63
2016-10-16T07:39:24.111Z,72.11
2016-10-16T07:40:24.142Z,71.72
2016-10-16T07:41:24.169Z,72.2
2016-10-16T07:42:24.167Z,71.44
2016-10-16T07:43:24.202Z,71.82
2016-10-16T07:44:24.205Z,71.95
2016-10-16T07:45:24.236Z,72.05
2016-10-16T07:46:24.239Z,71.38
2016-10-16T07:47:24.262Z,72.24
2016-10-16T07:48:24.279Z,71.57
2016-10-16T07:49:24.297Z,72.05
2016-10-16T07:50:24.314Z,72.05
2016-10-16T07:51:24.335Z,72.05
2016-10-16T07:52:24.351Z,72.24
2016-10-16T07:53:24.372Z,72.05
2016-10-16T07:54:24.392Z,72.43
2016-10-16T07:55:24.414Z,72.62
2016-10-16T07:56:24.433Z,72.53
2016-10-16T07:57:24.448Z,72.24
2016-10-16T07:58:24.471Z,72.53
2016-10-16T07:59:24.480Z,72.56
2016-10-16T08:00:24.499Z,72.47
2016-10-16T08:01:24.526Z,72.66
2016-10-16T08:02:24.535Z,72.37
2016-10-16T08:03:24.560Z,72.37
2016-10-16T08:04:24.582Z,72.37
2016-10-16T08:05:24.595Z,72.37
2016-10-16T08:06:24.618Z,72.66
2016-10-16T08:07:24.627Z,72.56
2016-10-16T08:08:24.657Z,72.5
2016-10-16T08:09:24.669Z,72.6
2016-10-16T08:10:24.690Z,72.5
2016-10-16T08:11:24.706Z,72.5
2016-10-16T08:12:24.724Z,72.31
2016-10-16T08:13:24.741Z,72.31
2016-10-16T08:14:24.759Z,72.69
2016-10-16T08:15:24.781Z,72.22
2016-10-16T08:16:24.806Z,72.5
2016-10-16T08:17:24.817Z,72.69
2016-10-16T08:18:24.843Z,72.79
2016-10-16T08:19:24.858Z,72.6
2016-10-16T08:20:24.870Z,72.22
2016-10-16T08:21:25.204Z,72.5
2016-10-16T08:22:24.912Z,72.83
2016-10-16T08:23:24.935Z,72.63
2016-10-16T08:24:24.949Z,72.34
2016-10-16T08:25:24.972Z,72.54
2016-10-16T08:26:24.983Z,72.34
2016-10-16T08:27:25.002Z,71.77
2016-10-16T08:28:25.029Z,71.77
2016-10-16T08:29:25.052Z,71.68
2016-10-16T08:30:25.082Z,72.06
2016-10-16T08:31:25.082Z,71.68
2016-10-16T08:32:25.101Z,71.23
2016-10-16T08:33:25.133Z,71.33
2016-10-16T08:34:25.137Z,71.71
2016-10-16T08:35:25.154Z,71.33
2016-10-16T08:36:25.182Z,71.62
2016-10-16T08:37:25.196Z,71.62
2016-10-16T08:38:25.212Z,71.52
2016-10-16T08:39:25.244Z,71.52
2016-10-16T08:40:25.251Z,71.52
2016-10-16T08:41:25.274Z,71.33
2016-10-16T08:42:25.605Z,71.62
2016-10-16T08:43:25.319Z,71.62
2016-10-16T08:44:25.338Z,71.42
2016-10-16T08:45:25.349Z,71.52
2016-10-16T08:46:25.718Z,71.66
2016-10-16T08:47:25.391Z,71.66
2016-10-16T08:48:25.407Z,71.17
2016-10-16T08:49:25.437Z,70.98
2016-10-16T08:50:25.445Z,71.37
2016-10-16T08:51:25.463Z,71.46
2016-10-16T08:52:25.490Z,71.46
2016-10-16T08:53:25.506Z,70.89
2016-10-16T08:54:25.523Z,70.79
2016-10-16T08:55:25.542Z,70.79
2016-10-16T08:56:25.569Z,71.17
2016-10-16T08:57:25.581Z,70.7
2016-10-16T08:58:25.598Z,70.79
2016-10-16T08:59:25.622Z,70.73
2016-10-16T09:00:25.638Z,70.73
2016-10-16T09:01:25.671Z,70.73
2016-10-16T09:02:25.680Z,70.83
2016-10-16T09:03:25.700Z,71.11
2016-10-16T09:04:25.716Z,70.92
2016-10-16T09:05:25.735Z,70.92
2016-10-16T09:06:25.759Z,70.73
2016-10-16T09:07:25.827Z,70.64
2016-10-16T09:08:25.795Z,69.77
2016-10-16T09:09:25.817Z,69.96
2016-10-16T09:10:25.838Z,69.48
2016-10-16T09:11:25.857Z,69.87
2016-10-16T09:12:25.875Z,70.06
2016-10-16T09:13:25.916Z,70.09
2016-10-16T09:14:25.915Z,70.09
2016-10-16T09:15:25.934Z,70.19
2016-10-16T09:16:26.269Z,69.52
2016-10-16T09:17:25.983Z,70.38
2016-10-16T09:18:25.996Z,69.52
2016-10-16T09:19:26.015Z,69.81
2016-10-16T09:20:26.036Z,69.04
2016-10-16T09:21:26.055Z,69.9
2016-10-16T09:22:26.073Z,69.81
2016-10-16T09:23:26.409Z,69.42
2016-10-16T09:24:26.116Z,68.85
2016-10-16T09:25:26.135Z,69.04
2016-10-16T09:26:26.208Z,68.75
2016-10-16T09:27:26.185Z,69.46
2016-10-16T09:28:26.196Z,68.88
2016-10-16T09:29:26.221Z,68.88
2016-10-16T09:30:26.237Z,68.4
2016-10-16T09:31:26.263Z,68.5
2016-10-16T09:32:26.276Z,68.69
2016-10-16T09:33:26.297Z,68.3
2016-10-16T09:34:26.318Z,68.02
2016-10-16T09:35:26.341Z,68.69
2016-10-16T09:36:26.359Z,68.4
2016-10-16T09:37:26.380Z,68.69
2016-10-16T09:38:26.399Z,68.21
2016-10-16T09:39:26.421Z,68.4
2016-10-16T09:40:26.443Z,68.5
2016-10-16T09:41:26.469Z,67.63
2016-10-16T09:42:26.481Z,67.67
2016-10-16T09:43:26.507Z,67.47
2016-10-16T09:44:27.065Z,67.67
2016-10-16T09:45:26.566Z,67
2016-10-16T09:46:26.567Z,67
2016-10-16T09:47:27.116Z,67.09
2016-10-16T09:48:26.608Z,67
2016-10-16T09:49:26.641Z,67.47
2016-10-16T09:50:26.644Z,66.42
2016-10-16T09:51:26.667Z,66.52
2016-10-16T09:52:26.703Z,66.52
2016-10-16T09:53:26.718Z,66.03
2016-10-16T09:54:26.733Z,65.94
2016-10-16T09:55:26.760Z,65.94
2016-10-16T09:56:26.772Z,66.03
2016-10-16T09:57:26.791Z,65.59
2016-10-16T09:58:26.812Z,65.69
2016-10-16T09:59:26.833Z,65.59
2016-10-16T10:00:26.854Z,65.78
2016-10-16T10:01:26.932Z,65.97
2016-10-16T10:02:26.897Z,65.97
2016-10-16T10:03:26.916Z,66.16
2016-10-16T10:04:26.937Z,65.97
2016-10-16T10:05:26.963Z,65.59
2016-10-16T10:06:26.980Z,65.49
2016-10-16T10:07:27.000Z,65.78
2016-10-16T10:08:27.019Z,65.69
2016-10-16T10:09:27.042Z,65.62
2016-10-16T10:10:27.067Z,65.11
2016-10-16T10:11:27.084Z,65.78
2016-10-16T10:12:27.105Z,65.53
2016-10-16T10:13:27.127Z,64.92
2016-10-16T10:14:27.149Z,65.14
2016-10-16T10:15:27.166Z,65.33
2016-10-16T10:16:27.190Z,64.66
2016-10-16T10:17:27.231Z,64.66
2016-10-16T10:18:27.230Z,64.85
2016-10-16T10:19:27.255Z,64.56
2016-10-16T10:20:27.272Z,64.56
2016-10-16T10:21:27.293Z,64.56
2016-10-16T10:22:27.315Z,64.66
2016-10-16T10:23:27.338Z,63.99
2016-10-16T10:24:27.359Z,64.5
2016-10-16T10:25:27.383Z,64.5
2016-10-16T10:26:27.402Z,63.83
2016-10-16T10:27:27.433Z,64.02
2016-10-16T10:28:27.442Z,64.22
2016-10-16T10:29:27.511Z,63.64
2016-10-16T10:30:27.489Z,63.35
2016-10-16T10:31:27.504Z,63.45
2016-10-16T10:32:27.530Z,63.25
2016-10-16T10:33:27.551Z,63.25
2016-10-16T10:34:27.578Z,63.35
2016-10-16T10:35:27.592Z,62.77
2016-10-16T10:36:27.613Z,63.15
2016-10-16T10:37:27.636Z,63.06
2016-10-16T10:38:27.656Z,63.28
2016-10-16T10:39:27.678Z,62.99
2016-10-16T10:40:27.700Z,62.99
2016-10-16T10:41:28.141Z,62.1
2016-10-16T10:42:27.742Z,62.13
2016-10-16T10:43:27.765Z,62.32
2016-10-16T10:44:27.786Z,62.41
2016-10-16T10:45:27.818Z,62.32
2016-10-16T10:46:27.837Z,61.94
2016-10-16T10:47:27.856Z,61.94
2016-10-16T10:48:27.884Z,62.32
2016-10-16T10:49:27.908Z,62.41
2016-10-16T10:50:27.926Z,61.74
2016-10-16T10:51:27.941Z,61.94
2016-10-16T10:52:27.962Z,61.84
2016-10-16T10:53:28.299Z,61.84
2016-10-16T10:54:28.005Z,61.74
2016-10-16T10:55:28.028Z,61.65
2016-10-16T10:56:28.048Z,61.55
2016-10-16T10:57:28.080Z,61.46
2016-10-16T10:58:28.093Z,61.84
2016-10-16T10:59:28.116Z,61.46
2016-10-16T11:00:28.136Z,61.16
2016-10-16T11:01:28.179Z,61.65
2016-10-16T11:02:28.187Z,61.65
2016-10-16T11:03:28.204Z,61.1
2016-10-16T11:04:28.227Z,60.78
2016-10-16T11:05:28.255Z,61.46
2016-10-16T11:06:28.276Z,61.19
2016-10-16T11:07:28.303Z,60.81
2016-10-16T11:08:28.322Z,60.81
2016-10-16T11:09:28.335Z,60.72
2016-10-16T11:10:28.363Z,60.52
2016-10-16T11:11:28.381Z,60.33
2016-10-16T11:12:28.403Z,60.62
2016-10-16T11:13:28.449Z,59.94
2016-10-16T11:14:28.452Z,59.94
2016-10-16T11:15:28.484Z,60.04
2016-10-16T11:16:28.491Z,59.66
2016-10-16T11:17:28.517Z,59.94
2016-10-16T11:18:28.537Z,60.17
2016-10-16T11:19:28.560Z,60.07
2016-10-16T11:20:28.584Z,60.04
2016-10-16T11:21:28.608Z,59.88
2016-10-16T11:22:28.627Z,59.78
2016-10-16T11:23:28.662Z,59.97
2016-10-16T11:24:28.673Z,59.97
2016-10-16T11:25:28.695Z,59.4
2016-10-16T11:26:28.718Z,59.49
2016-10-16T11:27:28.746Z,59.49
2016-10-16T11:28:28.781Z,59.59
2016-10-16T11:29:28.793Z,59.49
2016-10-16T11:30:28.808Z,59.3
2016-10-16T11:31:28.832Z,59.01
2016-10-16T11:32:28.854Z,59.3
2016-10-16T11:33:28.896Z,59.11
2016-10-16T11:34:28.901Z,59.11
2016-10-16T11:35:28.923Z,59.2
2016-10-16T11:36:28.944Z,59.27
2016-10-16T11:37:28.970Z,59.17
2016-10-16T11:38:28.993Z,59.01
2016-10-16T11:39:29.017Z,58.98
2016-10-16T11:40:29.036Z,58.31
2016-10-16T11:41:29.060Z,58.44
2016-10-16T11:42:29.082Z,58.72
2016-10-16T11:43:29.104Z,58.63
2016-10-16T11:44:29.127Z,58.53
2016-10-16T11:45:29.161Z,59.01
2016-10-16T11:46:29.174Z,58.44
2016-10-16T11:47:29.197Z,58.53
2016-10-16T11:48:29.218Z,58.53
2016-10-16T11:49:29.241Z,57.95
2016-10-16T11:50:29.265Z,58.24
2016-10-16T11:51:29.292Z,57.57
2016-10-16T11:52:29.310Z,57.86
2016-10-16T11:53:29.333Z,57.76
2016-10-16T11:54:29.356Z,57.98
2016-10-16T11:55:29.697Z,58.08
2016-10-16T11:56:29.406Z,57.6
2016-10-16T11:57:29.442Z,57.79
2016-10-16T11:58:29.467Z,57.6
2016-10-16T11:59:29.796Z,57.79
2016-10-16T12:00:29.494Z,58.37
2016-10-16T12:01:29.517Z,58.08
2016-10-16T12:02:29.541Z,57.89
2016-10-16T12:03:29.564Z,57.5
2016-10-16T12:04:29.588Z,57.89
2016-10-16T12:05:29.612Z,57.6
2016-10-16T12:06:29.651Z,58.08
2016-10-16T12:07:29.663Z,57.6
2016-10-16T12:08:29.681Z,57.92
2016-10-16T12:09:29.704Z,57.79
2016-10-16T12:10:29.727Z,57.82
2016-10-16T12:11:29.752Z,58.01
2016-10-16T12:12:29.772Z,57.72
2016-10-16T12:13:30.117Z,57.82
2016-10-16T12:14:29.819Z,57.62
2016-10-16T12:15:29.853Z,57.72
2016-10-16T12:16:29.868Z,57.14
2016-10-16T12:17:29.897Z,56.85
2016-10-16T12:18:29.913Z,57.17
2016-10-16T12:19:29.935Z,57.46
2016-10-16T12:20:29.960Z,57.37
2016-10-16T12:21:29.982Z,56.59
2016-10-16T12:22:30.006Z,56.88
2016-10-16T12:23:30.032Z,56.59
2016-10-16T12:24:30.053Z,56.79
2016-10-16T12:25:30.085Z,56.69
2016-10-16T12:26:30.102Z,56.49
2016-10-16T12:27:30.125Z,56.21
2016-10-16T12:28:30.148Z,56.11
2016-10-16T12:29:30.171Z,56.21
2016-10-16T12:30:30.201Z,56.21
2016-10-16T12:31:30.222Z,55.24
2016-10-16T12:32:30.243Z,55.24
2016-10-16T12:33:30.267Z,54.47
2016-10-16T12:34:30.289Z,55.15
2016-10-16T12:35:30.322Z,54.96
2016-10-16T12:36:30.340Z,55.34
2016-10-16T12:37:30.472Z,54.86
2016-10-16T12:38:30.481Z,55.24
2016-10-16T12:39:30.506Z,55.24
2016-10-16T12:40:30.515Z,55.15
2016-10-16T12:41:30.523Z,55.44
2016-10-16T12:42:30.532Z,55.24
2016-10-16T12:43:30.677Z,55.05
2016-10-16T12:44:30.543Z,54.86
2016-10-16T12:45:30.683Z,54.76
2016-10-16T12:46:30.691Z,54.57
2016-10-16T12:47:30.703Z,53.99
2016-10-16T12:48:30.709Z,54.96
2016-10-16T12:49:30.743Z,54.76
2016-10-16T12:50:30.756Z,55.05
2016-10-16T12:51:30.791Z,55.15
2016-10-16T12:52:30.800Z,55.24
2016-10-16T12:53:30.798Z,55.24
2016-10-16T12:54:30.808Z,55.24
2016-10-16T12:55:30.816Z,54.86